Time;durP1;ratioP1;P1;durP2;ratioP2;P2;SDS_P1;SDS_P2;PMS_P1;PMS_P2;Temp;Humidity;BMP_temperature;BMP_pressure;BME280_temperature;BME280_humidity;BME280_pressure;Samples;Min_cycle;Max_cycle;Signal;HPM_P1;HPM_P2
2023/12/22 00:00:21;;;;;;;;;;;5.90;99.90;;;;;;2620850;47;19947;-72
2023/12/22 00:02:51;;;;;;;;;;;5.90;99.90;;;;;;2616388;47;19950;-74
2023/12/22 00:05:21;;;;;;;;;;;5.90;99.90;;;;;;2615450;54;19991;-73
2023/12/22 00:07:51;;;;;;;;;;;5.90;99.90;;;;;;2615270;47;19950;-73
2023/12/22 00:10:24;;;;;;;;;;;5.90;99.90;;;;;;2613903;51;19939;-73
2023/12/22 00:12:53;;;;;;;;;;;5.90;99.90;;;;;;2615461;54;20031;-72
2023/12/22 00:15:23;;;;;;;;;;;6.00;99.90;;;;;;2614565;47;19946;-72
2023/12/22 00:17:53;;;;;;;;;;;5.90;99.90;;;;;;2615083;54;19951;-72
2023/12/22 00:20:23;;;;;;;;;;;6.00;99.90;;;;;;2613629;39;20357;-73
2023/12/22 00:22:53;;;;;;;;;;;6.20;99.90;;;;;;2613658;54;20940;-72
2023/12/22 00:25:25;;;;;;;;;;;6.00;99.90;;;;;;2613541;54;19951;-72
2023/12/22 00:27:55;;;;;;;;;;;6.00;99.90;;;;;;2615380;54;19946;-72
2023/12/22 00:30:24;;;;;;;;;;;6.00;99.90;;;;;;2613622;54;19954;-73
2023/12/22 00:32:54;;;;;;;;;;;6.10;99.90;;;;;;2614699;47;19946;-72
2023/12/22 00:35:24;;;;;;;;;;;6.00;99.90;;;;;;2614840;47;19946;-73
2023/12/22 00:37:53;;;;;;;;;;;6.10;99.90;;;;;;2615894;47;19939;-72
2023/12/22 00:40:26;;;;;;;;;;;6.10;99.90;;;;;;2613831;54;19977;-72
2023/12/22 00:42:55;;;;;;;;;;;6.10;99.90;;;;;;2616834;31;20402;-72
2023/12/22 00:45:25;;;;;;;;;;;6.10;99.90;;;;;;2615447;47;19974;-72
2023/12/22 00:47:54;;;;;;;;;;;6.10;99.90;;;;;;2616863;54;19939;-72
2023/12/22 00:50:24;;;;;;;;;;;6.10;99.90;;;;;;2615502;39;20352;-71
2023/12/22 00:52:54;;;;;;;;;;;6.20;99.90;;;;;;2616392;47;19953;-72
2023/12/22 00:55:26;;;;;;;;;;;6.20;99.90;;;;;;2613076;54;21219;-71
2023/12/22 00:57:56;;;;;;;;;;;6.20;99.90;;;;;;2617142;46;19947;-71
2023/12/22 01:00:25;;;;;;;;;;;6.30;99.90;;;;;;2615286;54;19958;-71
2023/12/22 01:02:55;;;;;;;;;;;6.30;99.90;;;;;;2616136;47;19957;-71
2023/12/22 01:05:25;;;;;;;;;;;6.40;99.90;;;;;;2619256;47;19946;-71
2023/12/22 01:07:55;;;;;;;;;;;6.40;99.90;;;;;;2617130;47;19948;-71
2023/12/22 01:10:27;;;;;;;;;;;6.50;99.90;;;;;;2615327;39;20636;-71
2023/12/22 01:12:56;;;;;;;;;;;6.50;99.90;;;;;;2614606;39;20381;-71
2023/12/22 01:15:26;;;;;;;;;;;6.50;99.90;;;;;;2613693;47;19950;-72
2023/12/22 01:17:56;;;;;;;;;;;6.50;99.90;;;;;;2617237;47;19954;-71
2023/12/22 01:20:25;;;;;;;;;;;6.50;99.90;;;;;;2616373;47;19954;-72
2023/12/22 01:22:55;;;;;;;;;;;6.40;99.90;;;;;;2615622;54;19938;-71
2023/12/22 01:25:27;;;;;;;;;;;6.40;99.90;;;;;;2616867;47;20519;-71
2023/12/22 01:27:57;;;;;;;;;;;6.40;99.90;;;;;;2620325;54;19945;-71
2023/12/22 01:30:27;;;;;;;;;;;6.50;99.90;;;;;;2619810;47;19950;-71
2023/12/22 01:32:56;;;;;;;;;;;6.20;99.90;;;;;;2620937;47;19950;-71
2023/12/22 01:35:26;;;;;;;;;;;6.30;99.90;;;;;;2619450;47;19943;-71
2023/12/22 01:37:56;;;;;;;;;;;6.20;99.90;;;;;;2617898;47;19939;-72
2023/12/22 01:40:29;;;;;;;;;;;6.20;99.90;;;;;;2616187;47;20015;-72
2023/12/22 01:42:58;;;;;;;;;;;6.20;99.90;;;;;;2619788;48;19993;-71
2023/12/22 01:45:28;;;;;;;;;;;6.10;99.90;;;;;;2615303;54;19977;-72
2023/12/22 01:47:58;;;;;;;;;;;6.20;99.90;;;;;;2616280;54;20462;-72
2023/12/22 01:50:27;;;;;;;;;;;6.10;99.90;;;;;;2615608;39;20365;-72
2023/12/22 01:52:57;;;;;;;;;;;6.10;99.90;;;;;;2614945;47;19945;-72
2023/12/22 01:55:29;;;;;;;;;;;6.10;99.90;;;;;;2614184;51;19943;-72
2023/12/22 01:57:59;;;;;;;;;;;6.10;99.90;;;;;;2615714;47;20013;-72
2023/12/22 02:00:29;;;;;;;;;;;6.10;99.90;;;;;;2616160;39;20361;-72
2023/12/22 02:02:58;;;;;;;;;;;6.20;99.90;;;;;;2616852;54;19947;-72
2023/12/22 02:05:29;;;;;;;;;;;6.10;99.90;;;;;;2622550;47;19942;-72
2023/12/22 02:07:59;;;;;;;;;;;6.20;99.90;;;;;;2619477;54;20500;-72
2023/12/22 02:10:31;;;;;;;;;;;6.30;99.90;;;;;;2615524;47;19978;-72
2023/12/22 02:13:01;;;;;;;;;;;6.30;99.90;;;;;;2615490;54;20512;-72
2023/12/22 02:15:31;;;;;;;;;;;6.30;99.90;;;;;;2615210;54;19939;-71
2023/12/22 02:18:02;;;;;;;;;;;6.30;99.90;;;;;;2615978;47;19954;-72
2023/12/22 02:20:32;;;;;;;;;;;6.30;99.90;;;;;;2615293;54;19950;-72
2023/12/22 02:23:04;;;;;;;;;;;6.40;99.90;;;;;;2615397;47;19946;-72
2023/12/22 02:25:34;;;;;;;;;;;6.50;99.90;;;;;;2613762;47;19947;-72
2023/12/22 02:28:06;;;;;;;;;;;6.50;99.90;;;;;;2616819;54;20433;-72
2023/12/22 02:30:39;;;;;;;;;;;6.50;99.90;;;;;;2613404;47;19966;-72
2023/12/22 02:33:10;;;;;;;;;;;6.50;99.90;;;;;;2615800;54;19954;-72
2023/12/22 02:35:41;;;;;;;;;;;6.60;99.90;;;;;;2614613;49;20453;-72
2023/12/22 02:38:14;;;;;;;;;;;6.60;99.90;;;;;;2614929;54;19947;-72
2023/12/22 02:40:44;;;;;;;;;;;6.60;99.90;;;;;;2615396;54;19950;-71
2023/12/22 02:43:14;;;;;;;;;;;6.60;99.90;;;;;;2615850;54;19994;-73
2023/12/22 02:45:43;;;;;;;;;;;6.60;99.90;;;;;;2615209;39;20110;-72
2023/12/22 02:48:13;;;;;;;;;;;6.60;99.90;;;;;;2616740;39;21395;-72
2023/12/22 02:50:43;;;;;;;;;;;6.60;99.90;;;;;;2615121;54;19938;-73
2023/12/22 02:53:15;;;;;;;;;;;6.60;99.90;;;;;;2616180;53;19943;-72
2023/12/22 02:55:44;;;;;;;;;;;6.50;99.90;;;;;;2614904;47;19953;-72
2023/12/22 02:58:14;;;;;;;;;;;6.50;99.90;;;;;;2615336;54;20017;-72
2023/12/22 03:00:44;;;;;;;;;;;6.50;99.90;;;;;;2615922;47;19947;-72
2023/12/22 03:03:14;;;;;;;;;;;6.40;99.90;;;;;;2615820;47;20015;-72
2023/12/22 03:05:43;;;;;;;;;;;6.50;99.90;;;;;;2615308;39;20376;-75
2023/12/22 03:08:16;;;;;;;;;;;6.40;99.90;;;;;;2615814;54;20066;-72
2023/12/22 03:10:45;;;;;;;;;;;6.40;99.90;;;;;;2615778;47;19946;-72
2023/12/22 03:13:15;;;;;;;;;;;6.50;99.90;;;;;;2615790;39;20373;-72
2023/12/22 03:15:47;;;;;;;;;;;6.40;99.90;;;;;;2613888;47;19939;-71
2023/12/22 03:18:16;;;;;;;;;;;6.50;99.90;;;;;;2615654;47;19947;-72
2023/12/22 03:20:46;;;;;;;;;;;6.50;99.90;;;;;;2615053;54;20549;-71
2023/12/22 03:23:18;;;;;;;;;;;6.60;99.90;;;;;;2616046;49;19947;-72
2023/12/22 03:25:48;;;;;;;;;;;6.60;99.90;;;;;;2617236;47;19946;-72
2023/12/22 03:28:18;;;;;;;;;;;6.50;99.90;;;;;;2614501;47;19947;-72
2023/12/22 03:30:47;;;;;;;;;;;6.50;99.90;;;;;;2617031;39;20440;-71
2023/12/22 03:33:17;;;;;;;;;;;6.50;99.90;;;;;;2616931;54;19951;-72
2023/12/22 03:35:47;;;;;;;;;;;6.50;99.90;;;;;;2616804;47;20685;-72
2023/12/22 03:38:19;;;;;;;;;;;6.50;99.90;;;;;;2622500;47;19935;-72
2023/12/22 03:40:49;;;;;;;;;;;6.60;99.90;;;;;;2622791;39;20381;-72
2023/12/22 03:43:18;;;;;;;;;;;6.60;99.90;;;;;;2622071;47;19939;-72
2023/12/22 03:45:48;;;;;;;;;;;6.60;99.90;;;;;;2618868;54;19952;-72
2023/12/22 03:48:18;;;;;;;;;;;6.70;99.90;;;;;;2616675;54;19941;-72
2023/12/22 03:50:48;;;;;;;;;;;6.70;99.90;;;;;;2616487;47;19946;-72
2023/12/22 03:53:20;;;;;;;;;;;6.70;99.90;;;;;;2615173;47;19939;-72
2023/12/22 03:55:49;;;;;;;;;;;6.70;99.90;;;;;;2615802;39;20345;-71
2023/12/22 03:58:19;;;;;;;;;;;6.80;99.90;;;;;;2615153;54;19947;-72
2023/12/22 04:00:49;;;;;;;;;;;6.80;99.90;;;;;;2629555;47;19943;-85
2023/12/22 04:03:19;;;;;;;;;;;6.80;99.90;;;;;;2626597;47;20489;-74
2023/12/22 04:05:49;;;;;;;;;;;6.80;99.90;;;;;;2615695;54;19967;-75
2023/12/22 04:08:22;;;;;;;;;;;6.80;99.90;;;;;;2615559;54;19961;-75
2023/12/22 04:10:52;;;;;;;;;;;6.80;99.90;;;;;;2618449;47;19953;-74
2023/12/22 04:13:21;;;;;;;;;;;6.80;99.90;;;;;;2621443;47;19938;-75
2023/12/22 04:15:51;;;;;;;;;;;6.80;99.90;;;;;;2612718;54;19947;-70
2023/12/22 04:18:21;;;;;;;;;;;8.00;99.90;;;;;;2620926;46;19947;-70
2023/12/22 04:20:53;;;;;;;;;;;6.80;99.90;;;;;;2615911;54;19946;-71
2023/12/22 04:23:25;;;;;;;;;;;6.90;99.90;;;;;;2615991;46;20077;-71
2023/12/22 04:25:55;;;;;;;;;;;6.90;99.90;;;;;;2611916;54;19946;-71
2023/12/22 04:28:25;;;;;;;;;;;6.80;99.90;;;;;;2614864;47;19943;-71
2023/12/22 04:30:54;;;;;;;;;;;6.80;99.90;;;;;;2616107;47;19938;-71
2023/12/22 04:33:24;;;;;;;;;;;6.90;99.90;;;;;;2615751;54;19958;-70
2023/12/22 04:35:54;;;;;;;;;;;6.90;99.90;;;;;;2615738;54;19950;-71
2023/12/22 04:38:26;;;;;;;;;;;7.00;99.90;;;;;;2616157;54;19946;-70
2023/12/22 04:40:56;;;;;;;;;;;7.00;99.90;;;;;;2613460;47;19946;-71
2023/12/22 04:43:25;;;;;;;;;;;7.00;99.90;;;;;;2615711;54;20438;-71
2023/12/22 04:45:55;;;;;;;;;;;7.00;99.90;;;;;;2614926;47;19939;-70
2023/12/22 04:48:25;;;;;;;;;;;7.10;99.90;;;;;;2615993;54;19946;-71
2023/12/22 04:50:54;;;;;;;;;;;7.00;99.90;;;;;;2616078;39;20339;-70
2023/12/22 04:53:27;;;;;;;;;;;7.10;99.90;;;;;;2616085;47;19934;-70
2023/12/22 04:55:56;;;;;;;;;;;7.10;99.90;;;;;;2615007;54;19957;-70
2023/12/22 04:58:26;;;;;;;;;;;7.10;99.90;;;;;;2621332;47;19939;-70
2023/12/22 05:00:56;;;;;;;;;;;7.10;99.90;;;;;;2616554;54;19953;-71
2023/12/22 05:03:25;;;;;;;;;;;7.10;99.90;;;;;;2614420;54;20037;-70
2023/12/22 05:05:55;;;;;;;;;;;7.10;99.90;;;;;;2615132;54;19989;-73
2023/12/22 05:08:27;;;;;;;;;;;7.00;99.90;;;;;;2615664;54;19950;-71
2023/12/22 05:10:57;;;;;;;;;;;7.00;99.90;;;;;;2613462;54;19958;-70
2023/12/22 05:13:27;;;;;;;;;;;7.00;99.90;;;;;;2613189;54;19962;-71
2023/12/22 05:15:56;;;;;;;;;;;6.90;99.90;;;;;;2613306;50;19997;-71
2023/12/22 05:18:26;;;;;;;;;;;6.80;99.90;;;;;;2616501;54;19950;-71
2023/12/22 05:20:56;;;;;;;;;;;6.80;99.90;;;;;;2615002;54;19946;-71
2023/12/22 05:23:28;;;;;;;;;;;6.70;99.90;;;;;;2614805;54;19954;-72
2023/12/22 05:26:03;;;;;;;;;;;6.70;99.90;;;;;;2614348;54;20456;-71
2023/12/22 05:28:33;;;;;;;;;;;6.80;99.90;;;;;;2615742;54;19958;-71
2023/12/22 05:31:02;;;;;;;;;;;6.80;99.90;;;;;;2613412;47;19958;-71
2023/12/22 05:33:32;;;;;;;;;;;6.90;99.90;;;;;;2615363;54;19985;-71
2023/12/22 05:36:02;;;;;;;;;;;6.90;99.90;;;;;;2616685;47;19954;-72
2023/12/22 05:38:34;;;;;;;;;;;6.90;99.90;;;;;;2616306;47;19947;-72
2023/12/22 05:41:04;;;;;;;;;;;6.90;99.90;;;;;;2615164;47;19950;-73
2023/12/22 05:43:33;;;;;;;;;;;6.90;99.90;;;;;;2615151;47;20000;-72
2023/12/22 05:46:03;;;;;;;;;;;6.90;99.90;;;;;;2614264;54;19943;-72
2023/12/22 05:48:33;;;;;;;;;;;6.90;99.90;;;;;;2614097;54;19953;-71
2023/12/22 05:51:03;;;;;;;;;;;6.90;99.90;;;;;;2599924;47;19931;-80
2023/12/22 05:53:36;;;;;;;;;;;7.50;99.90;;;;;;2628667;54;20781;-80
2023/12/22 05:56:06;;;;;;;;;;;7.00;99.90;;;;;;2629112;54;19973;-80
2023/12/22 05:58:36;;;;;;;;;;;6.90;99.90;;;;;;2628727;46;19946;-79
2023/12/22 06:01:06;;;;;;;;;;;6.90;99.90;;;;;;2631177;39;20483;-79
2023/12/22 06:03:37;;;;;;;;;;;6.90;99.90;;;;;;2628052;54;19976;-79
2023/12/22 06:06:08;;;;;;;;;;;6.90;99.90;;;;;;2629368;46;19968;-80
2023/12/22 06:08:41;;;;;;;;;;;6.90;99.90;;;;;;2630143;47;19977;-80
2023/12/22 06:11:11;;;;;;;;;;;7.90;99.90;;;;;;2624281;54;19950;-77
2023/12/22 06:13:41;;;;;;;;;;;6.90;99.90;;;;;;2618541;39;20404;-78
2023/12/22 06:16:13;;;;;;;;;;;6.90;99.90;;;;;;2619107;47;19942;-78
2023/12/22 06:18:44;;;;;;;;;;;6.90;99.90;;;;;;2618568;47;20508;-78
2023/12/22 06:21:15;;;;;;;;;;;6.90;99.90;;;;;;2620001;54;20045;-78
2023/12/22 06:23:47;;;;;;;;;;;6.90;99.90;;;;;;2619936;54;19938;-77
2023/12/22 06:26:17;;;;;;;;;;;7.00;99.90;;;;;;2621803;39;20385;-76
2023/12/22 06:28:47;;;;;;;;;;;6.90;99.90;;;;;;2620753;47;19939;-75
2023/12/22 06:31:21;;;;;;;;;;;7.80;99.90;;;;;;2622637;47;19990;-76
2023/12/22 06:33:52;;;;;;;;;;;6.90;99.90;;;;;;2621208;47;19999;-77
2023/12/22 06:36:23;;;;;;;;;;;6.90;99.90;;;;;;2621170;54;19987;-76
2023/12/22 06:38:57;;;;;;;;;;;7.00;99.90;;;;;;2623798;54;19942;-76
2023/12/22 06:41:28;;;;;;;;;;;7.00;99.90;;;;;;2625832;46;19947;-77
2023/12/22 06:43:59;;;;;;;;;;;7.00;99.90;;;;;;2619910;54;19949;-77
2023/12/22 06:46:30;;;;;;;;;;;7.10;99.90;;;;;;2619271;54;20057;-76
2023/12/22 06:49:01;;;;;;;;;;;7.10;99.90;;;;;;2618719;54;19957;-76
2023/12/22 06:51:34;;;;;;;;;;;7.10;99.90;;;;;;2618861;47;19957;-76
2023/12/22 06:54:08;;;;;;;;;;;7.10;99.90;;;;;;2617431;46;19954;-77
2023/12/22 06:56:41;;;;;;;;;;;7.10;99.90;;;;;;2620382;47;19967;-77
2023/12/22 06:59:12;;;;;;;;;;;7.20;99.90;;;;;;2623591;54;19942;-78
2023/12/22 07:01:45;;;;;;;;;;;7.20;99.90;;;;;;2624321;47;20016;-80
2023/12/22 07:04:31;;;;;;;;;;;7.20;99.90;;;;;;2627218;54;19942;-77
2023/12/22 07:07:01;;;;;;;;;;;7.30;99.90;;;;;;2622780;46;19961;-75
2023/12/22 07:09:37;;;;;;;;;;;7.60;99.90;;;;;;2620466;47;20463;-76
2023/12/22 07:12:08;;;;;;;;;;;7.30;99.90;;;;;;2619659;47;20064;-75
2023/12/22 07:14:38;;;;;;;;;;;7.40;99.90;;;;;;2617240;47;19938;-76
2023/12/22 07:17:07;;;;;;;;;;;7.40;99.90;;;;;;2620455;47;19950;-76
2023/12/22 07:19:37;;;;;;;;;;;7.50;99.90;;;;;;2623439;47;19950;-77
2023/12/22 07:22:07;;;;;;;;;;;7.60;99.90;;;;;;2622587;47;19950;-78
2023/12/22 07:24:40;;;;;;;;;;;7.60;99.90;;;;;;2623502;47;19933;-77
2023/12/22 07:27:09;;;;;;;;;;;7.70;99.90;;;;;;2622181;47;19951;-77
2023/12/22 07:29:40;;;;;;;;;;;7.70;99.90;;;;;;2623984;47;19950;-78
2023/12/22 07:32:10;;;;;;;;;;;7.80;99.90;;;;;;2626906;47;19945;-78
2023/12/22 07:34:40;;;;;;;;;;;7.90;99.90;;;;;;2637801;39;20396;-78
2023/12/22 07:37:11;;;;;;;;;;;8.00;99.90;;;;;;2627082;47;19950;-81
2023/12/22 07:39:45;;;;;;;;;;;8.00;99.90;;;;;;2626427;54;19950;-75
2023/12/22 07:42:15;;;;;;;;;;;8.00;99.90;;;;;;2625860;47;19938;-77
2023/12/22 07:44:45;;;;;;;;;;;8.00;99.90;;;;;;2621533;47;19946;-77
2023/12/22 07:47:15;;;;;;;;;;;8.00;99.90;;;;;;2626093;47;19941;-78
2023/12/22 07:49:45;;;;;;;;;;;8.00;99.90;;;;;;2621299;54;20054;-78
2023/12/22 07:52:16;;;;;;;;;;;8.00;99.90;;;;;;2620049;47;19998;-77
2023/12/22 07:54:51;;;;;;;;;;;8.00;99.90;;;;;;2619080;47;19946;-76
2023/12/22 07:57:21;;;;;;;;;;;8.10;99.90;;;;;;2617203;47;19976;-76
2023/12/22 07:59:50;;;;;;;;;;;8.10;99.90;;;;;;2618841;31;20455;-76
2023/12/22 08:02:20;;;;;;;;;;;8.10;99.90;;;;;;2618234;47;19942;-76
2023/12/22 08:04:50;;;;;;;;;;;8.10;99.90;;;;;;2620147;47;19950;-76
2023/12/22 08:07:20;;;;;;;;;;;8.00;99.90;;;;;;2620548;54;19949;-77
2023/12/22 08:09:53;;;;;;;;;;;8.10;99.90;;;;;;2624209;54;19942;-76
2023/12/22 08:12:22;;;;;;;;;;;8.00;99.90;;;;;;2625963;47;19949;-77
2023/12/22 08:14:52;;;;;;;;;;;8.60;99.90;;;;;;2623595;54;19999;-77
2023/12/22 08:17:22;;;;;;;;;;;8.00;99.90;;;;;;2622374;46;20007;-77
2023/12/22 08:19:52;;;;;;;;;;;7.90;99.90;;;;;;2625217;54;19946;-78
2023/12/22 08:22:23;;;;;;;;;;;7.90;99.90;;;;;;2624611;47;19939;-78
2023/12/22 08:25:01;;;;;;;;;;;7.80;99.90;;;;;;2625013;47;19991;-77
2023/12/22 08:27:32;;;;;;;;;;;7.80;99.90;;;;;;2627113;54;20496;-78
2023/12/22 08:30:03;;;;;;;;;;;7.80;99.90;;;;;;2628040;47;19955;-79
2023/12/22 08:32:33;;;;;;;;;;;7.80;99.90;;;;;;2629450;46;19967;-79
2023/12/22 08:35:04;;;;;;;;;;;7.80;99.90;;;;;;2629312;47;19978;-79
2023/12/22 08:37:37;;;;;;;;;;;7.70;99.90;;;;;;2629949;54;19945;-79
2023/12/22 08:40:10;;;;;;;;;;;7.70;99.90;;;;;;2629654;54;19938;-78
2023/12/22 08:42:40;;;;;;;;;;;7.70;99.90;;;;;;2629988;47;19994;-78
2023/12/22 08:45:11;;;;;;;;;;;7.70;99.90;;;;;;2630105;46;19942;-80
2023/12/22 08:47:40;;;;;;;;;;;7.80;99.90;;;;;;2629926;46;19960;-79
2023/12/22 08:50:12;;;;;;;;;;;7.80;99.90;;;;;;2629677;47;19939;-79
2023/12/22 08:52:42;;;;;;;;;;;7.70;99.90;;;;;;2635675;39;20606;-80
2023/12/22 08:55:16;;;;;;;;;;;7.70;99.90;;;;;;2629356;47;19955;-79
2023/12/22 08:57:45;;;;;;;;;;;7.70;99.90;;;;;;2625648;47;19938;-77
2023/12/22 09:00:27;;;;;;;;;;;7.70;99.90;;;;;;2627471;47;19939;-81
2023/12/22 09:02:57;;;;;;;;;;;8.70;99.90;;;;;;2627029;54;19946;-78
2023/12/22 09:05:27;;;;;;;;;;;7.80;99.90;;;;;;2625401;54;19946;-79
2023/12/22 09:07:57;;;;;;;;;;;7.80;99.90;;;;;;2625434;39;20482;-77
2023/12/22 09:10:30;;;;;;;;;;;7.90;99.90;;;;;;2628085;47;20053;-79
2023/12/22 09:13:00;;;;;;;;;;;7.80;99.90;;;;;;2627855;54;19946;-78
2023/12/22 09:15:30;;;;;;;;;;;7.90;99.90;;;;;;2628800;47;19946;-81
2023/12/22 09:18:00;;;;;;;;;;;7.90;99.90;;;;;;2629386;54;19998;-80
2023/12/22 09:20:30;;;;;;;;;;;7.90;99.90;;;;;;2623984;54;20834;-76
2023/12/22 09:22:59;;;;;;;;;;;7.90;99.90;;;;;;2619270;54;19939;-77
2023/12/22 09:25:32;;;;;;;;;;;7.90;99.90;;;;;;2621132;54;19946;-78
2023/12/22 09:28:02;;;;;;;;;;;8.90;99.90;;;;;;2620213;47;19943;-77
2023/12/22 09:30:32;;;;;;;;;;;8.00;99.90;;;;;;2621443;47;20414;-76
2023/12/22 09:33:02;;;;;;;;;;;8.00;99.90;;;;;;2619083;54;19939;-77
2023/12/22 09:35:32;;;;;;;;;;;8.30;99.90;;;;;;2619477;47;19946;-79
2023/12/22 09:38:02;;;;;;;;;;;8.90;99.90;;;;;;2619288;54;19947;-77
2023/12/22 09:40:36;;;;;;;;;;;8.10;99.90;;;;;;2619422;47;19952;-78
2023/12/22 09:43:06;;;;;;;;;;;8.00;99.90;;;;;;2618859;47;19972;-78
2023/12/22 09:45:37;;;;;;;;;;;8.00;99.90;;;;;;2619435;54;19946;-78
2023/12/22 09:48:08;;;;;;;;;;;8.10;99.90;;;;;;2627667;46;20059;-76
2023/12/22 09:50:38;;;;;;;;;;;8.10;99.90;;;;;;2619727;47;19979;-77
2023/12/22 09:53:08;;;;;;;;;;;8.10;99.90;;;;;;2619325;54;19953;-76
2023/12/22 09:55:41;;;;;;;;;;;8.10;99.90;;;;;;2620211;39;20257;-76
2023/12/22 09:58:12;;;;;;;;;;;8.10;99.90;;;;;;2619784;39;20350;-77
2023/12/22 10:00:43;;;;;;;;;;;8.10;99.90;;;;;;2618862;54;19960;-77
2023/12/22 10:03:13;;;;;;;;;;;8.20;99.90;;;;;;2619472;47;19962;-78
2023/12/22 10:05:43;;;;;;;;;;;8.20;99.90;;;;;;2622277;51;19966;-79
2023/12/22 10:08:14;;;;;;;;;;;8.20;99.90;;;;;;2624817;54;19949;-82
2023/12/22 10:10:47;;;;;;;;;;;8.20;99.90;;;;;;2623340;47;20030;-79
2023/12/22 10:13:17;;;;;;;;;;;8.20;99.90;;;;;;2628804;47;20556;-84
2023/12/22 10:15:48;;;;;;;;;;;8.40;99.90;;;;;;2629416;47;19953;-80
2023/12/22 10:18:18;;;;;;;;;;;8.30;99.90;;;;;;2628796;47;19943;-80
2023/12/22 10:20:48;;;;;;;;;;;8.30;99.90;;;;;;2629386;47;20943;-80
2023/12/22 10:23:18;;;;;;;;;;;8.40;99.90;;;;;;2628963;47;19923;-80
2023/12/22 10:25:51;;;;;;;;;;;8.40;99.90;;;;;;2628923;54;20635;-82
2023/12/22 10:28:24;;;;;;;;;;;8.40;99.90;;;;;;2628984;47;19943;-80
2023/12/22 10:30:55;;;;;;;;;;;8.40;99.90;;;;;;2629210;54;20011;-82
2023/12/22 10:33:25;;;;;;;;;;;8.40;99.90;;;;;;2611172;46;19950;-71
2023/12/22 10:35:56;;;;;;;;;;;9.10;99.90;;;;;;2583858;54;19981;-70
2023/12/22 10:38:26;;;;;;;;;;;8.50;99.90;;;;;;2597559;54;19946;-70
2023/12/22 10:40:58;;;;;;;;;;;8.50;99.90;;;;;;2597615;47;19955;-70
2023/12/22 10:43:28;;;;;;;;;;;8.50;99.90;;;;;;2595540;54;20858;-71
2023/12/22 10:45:58;;;;;;;;;;;8.40;99.90;;;;;;2601096;39;20711;-70
2023/12/22 10:48:27;;;;;;;;;;;8.60;99.90;;;;;;2601012;54;19951;-70
2023/12/22 10:50:57;;;;;;;;;;;8.60;99.90;;;;;;2596385;47;19951;-71
2023/12/22 10:53:27;;;;;;;;;;;8.60;99.90;;;;;;2599960;54;19950;-72
2023/12/22 10:55:59;;;;;;;;;;;8.60;99.90;;;;;;2599475;54;19947;-71
2023/12/22 10:58:31;;;;;;;;;;;8.60;99.90;;;;;;2600537;47;19951;-71
2023/12/22 11:01:02;;;;;;;;;;;8.60;99.90;;;;;;2596444;46;19973;-72
2023/12/22 11:03:33;;;;;;;;;;;8.70;99.90;;;;;;2598665;54;19947;-71
2023/12/22 11:06:04;;;;;;;;;;;8.70;99.90;;;;;;2597774;47;20489;-71
2023/12/22 11:08:35;;;;;;;;;;;8.70;99.90;;;;;;2597039;54;19951;-71
2023/12/22 11:11:13;;;;;;;;;;;8.80;99.90;;;;;;2590348;47;19950;-71
2023/12/22 11:13:43;;;;;;;;;;;8.80;99.90;;;;;;2597888;54;19954;-71
2023/12/22 12:07:44;;;;;;;;;;;8.80;99.90;;;;;;2591600;54;21751;-73
2023/12/22 12:10:15;;;;;;;;;;;9.10;99.90;;;;;;2595605;47;20450;-72
2023/12/22 12:12:44;;;;;;;;;;;9.10;99.90;;;;;;2597527;54;19971;-72
2023/12/22 12:15:15;;;;;;;;;;;9.10;99.90;;;;;;2600125;54;19970;-73
2023/12/22 12:17:45;;;;;;;;;;;9.10;99.90;;;;;;2600560;54;19951;-75
2023/12/22 12:20:15;;;;;;;;;;;9.10;99.90;;;;;;2601180;47;20610;-72
2023/12/22 12:22:48;;;;;;;;;;;9.10;99.90;;;;;;2599881;31;20428;-73
2023/12/22 12:25:20;;;;;;;;;;;9.20;99.90;;;;;;2598914;54;19951;-72
2023/12/22 12:28:03;;;;;;;;;;;9.20;99.90;;;;;;2596488;50;19958;-73
2023/12/22 12:30:33;;;;;;;;;;;9.20;99.90;;;;;;2600056;54;19950;-74
2023/12/22 12:33:08;;;;;;;;;;;9.20;99.90;;;;;;2601211;54;20118;-72
2023/12/22 12:35:39;;;;;;;;;;;8.00;99.90;;;;;;2600043;50;19954;-73
2023/12/22 12:38:19;;;;;;;;;;;9.20;99.90;;;;;;2619245;47;19953;-72
2023/12/22 12:40:51;;;;;;;;;;;9.20;99.90;;;;;;2618392;47;19947;-73
2023/12/22 12:43:21;;;;;;;;;;;9.10;99.90;;;;;;2619893;54;19938;-71
2023/12/22 12:45:51;;;;;;;;;;;9.20;99.90;;;;;;2621316;54;19951;-72
2023/12/22 12:48:23;;;;;;;;;;;9.20;99.90;;;;;;2619274;54;19935;-70
2023/12/22 12:50:53;;;;;;;;;;;9.20;99.90;;;;;;2620259;39;20418;-73
2023/12/22 12:53:25;;;;;;;;;;;9.10;99.90;;;;;;2617534;47;19947;-73
2023/12/22 12:55:58;;;;;;;;;;;9.20;99.90;;;;;;2618027;54;19953;-71
2023/12/22 12:58:29;;;;;;;;;;;9.20;99.90;;;;;;2618523;47;19946;-74
2023/12/22 13:01:12;;;;;;;;;;;9.20;99.90;;;;;;2619767;54;19954;-72
2023/12/22 13:03:55;;;;;;;;;;;9.30;99.90;;;;;;2618266;54;19942;-70
2023/12/22 13:06:26;;;;;;;;;;;9.30;99.90;;;;;;2618775;54;20071;-72
2023/12/22 13:08:58;;;;;;;;;;;9.30;99.90;;;;;;2620717;39;20391;-73
2023/12/22 13:11:28;;;;;;;;;;;9.30;99.90;;;;;;2620152;47;19951;-73
2023/12/22 13:13:58;;;;;;;;;;;9.40;99.90;;;;;;2619247;47;20469;-73
2023/12/22 13:16:30;;;;;;;;;;;9.40;99.90;;;;;;2620016;54;19987;-73
2023/12/22 13:19:00;;;;;;;;;;;9.40;99.90;;;;;;2621745;39;20337;-74
2023/12/22 13:21:30;;;;;;;;;;;9.50;99.90;;;;;;2617607;47;19954;-73
2023/12/22 13:24:13;;;;;;;;;;;9.50;99.90;;;;;;2619331;47;19995;-72
2023/12/22 13:26:43;;;;;;;;;;;9.60;99.90;;;;;;2620456;51;19954;-74
2023/12/22 13:29:13;;;;;;;;;;;9.70;99.90;;;;;;2620476;54;19955;-74
2023/12/22 13:31:45;;;;;;;;;;;9.80;99.90;;;;;;2618890;47;21445;-74
2023/12/22 13:34:15;;;;;;;;;;;9.90;99.90;;;;;;2617951;47;20026;-72
2023/12/22 13:36:45;;;;;;;;;;;9.90;99.90;;;;;;2619634;54;19990;-73
2023/12/22 13:39:17;;;;;;;;;;;10.00;99.90;;;;;;2618183;47;20458;-74
2023/12/22 13:41:48;;;;;;;;;;;10.00;99.90;;;;;;2619554;54;19941;-73
2023/12/22 13:44:18;;;;;;;;;;;10.00;99.90;;;;;;2619664;47;19947;-73
2023/12/22 13:46:47;;;;;;;;;;;10.10;99.90;;;;;;2619812;47;19939;-73
2023/12/22 13:49:17;;;;;;;;;;;10.10;99.90;;;;;;2619400;47;19934;-74
2023/12/22 13:51:47;;;;;;;;;;;10.10;99.90;;;;;;2620246;47;19947;-74
2023/12/22 13:54:19;;;;;;;;;;;10.10;99.90;;;;;;2618261;54;19954;-74
2023/12/22 13:56:51;;;;;;;;;;;10.10;99.90;;;;;;2619382;31;20411;-71
2023/12/22 13:59:32;;;;;;;;;;;10.10;99.90;;;;;;2617971;54;20021;-63
2023/12/22 14:02:02;;;;;;;;;;;10.10;99.90;;;;;;2617668;39;20354;-73
2023/12/22 14:04:35;;;;;;;;;;;10.10;99.90;;;;;;2608428;47;20521;-69
2023/12/22 14:07:04;;;;;;;;;;;10.10;99.90;;;;;;2595599;54;20075;-72
2023/12/22 14:09:38;;;;;;;;;;;10.10;99.90;;;;;;2597702;39;20137;-74
2023/12/22 14:12:08;;;;;;;;;;;10.20;99.90;;;;;;2597782;47;19957;-73
2023/12/22 14:14:45;;;;;;;;;;;10.20;99.90;;;;;;2598539;54;19950;-73
2023/12/22 14:17:15;;;;;;;;;;;10.20;99.90;;;;;;2597619;47;20054;-73
2023/12/22 14:19:45;;;;;;;;;;;10.20;99.90;;;;;;2597737;47;19951;-72
2023/12/22 14:22:14;;;;;;;;;;;10.20;99.90;;;;;;2598445;54;20510;-72
2023/12/22 14:24:47;;;;;;;;;;;10.10;99.90;;;;;;2595979;54;20042;-72
2023/12/22 14:27:18;;;;;;;;;;;10.20;99.90;;;;;;2597905;47;19958;-74
2023/12/22 14:29:48;;;;;;;;;;;10.10;99.90;;;;;;2598418;47;19957;-73
2023/12/22 14:32:18;;;;;;;;;;;10.10;99.90;;;;;;2599018;39;20358;-75
2023/12/22 14:34:48;;;;;;;;;;;10.10;99.90;;;;;;2600467;39;21282;-74
2023/12/22 14:37:19;;;;;;;;;;;9.10;99.90;;;;;;2599595;54;19951;-73
2023/12/22 14:39:52;;;;;;;;;;;10.10;99.90;;;;;;2602816;39;20243;-75
2023/12/22 14:42:22;;;;;;;;;;;10.10;99.90;;;;;;2598841;39;20471;-76
2023/12/22 14:44:54;;;;;;;;;;;10.10;99.90;;;;;;2595675;54;19950;-73
2023/12/22 14:47:23;;;;;;;;;;;10.80;99.90;;;;;;2598375;54;21573;-74
2023/12/22 14:49:53;;;;;;;;;;;10.20;99.90;;;;;;2602345;47;19946;-73
2023/12/22 14:52:23;;;;;;;;;;;10.20;99.90;;;;;;2602188;54;19957;-73
2023/12/22 14:54:56;;;;;;;;;;;10.20;99.90;;;;;;2596717;54;19950;-74
2023/12/22 14:57:26;;;;;;;;;;;10.20;99.90;;;;;;2598821;47;20004;-74
2023/12/22 14:59:55;;;;;;;;;;;10.20;99.90;;;;;;2599101;54;19947;-77
2023/12/22 15:02:26;;;;;;;;;;;10.20;99.90;;;;;;2597389;54;19954;-73
2023/12/22 15:04:57;;;;;;;;;;;10.20;99.90;;;;;;2597494;46;19954;-75
2023/12/22 15:07:30;;;;;;;;;;;11.20;99.90;;;;;;2598192;39;20330;-73
2023/12/22 15:10:05;;;;;;;;;;;10.20;99.90;;;;;;2595563;54;19951;-74
2023/12/22 15:12:37;;;;;;;;;;;11.40;99.90;;;;;;2598466;31;20561;-75
2023/12/22 15:15:08;;;;;;;;;;;10.20;99.90;;;;;;2597124;47;20038;-75
2023/12/22 15:17:37;;;;;;;;;;;10.30;99.90;;;;;;2599048;47;19946;-75
2023/12/22 15:20:10;;;;;;;;;;;10.40;99.90;;;;;;2598965;47;20034;-75
2023/12/22 15:22:44;;;;;;;;;;;10.30;99.90;;;;;;2598859;47;19958;-75
2023/12/22 15:25:18;;;;;;;;;;;10.30;99.90;;;;;;2598045;47;19961;-76
2023/12/22 15:27:48;;;;;;;;;;;10.30;99.90;;;;;;2602362;54;19951;-77
2023/12/22 15:30:18;;;;;;;;;;;10.30;99.90;;;;;;2601953;47;20522;-74
2023/12/22 15:32:48;;;;;;;;;;;10.40;99.90;;;;;;2600156;54;19950;-76
2023/12/22 15:35:20;;;;;;;;;;;10.30;99.90;;;;;;2598240;51;19955;-77
2023/12/22 15:37:51;;;;;;;;;;;10.30;99.90;;;;;;2597528;39;20192;-77
2023/12/22 15:40:24;;;;;;;;;;;10.30;99.90;;;;;;2597435;54;19953;-75